GLD1794 NWWB-NWWW
Flight info
| Callsign | GLD1794 |
|---|---|
| Flight time | 0h 18m |
| Altitude | 3000 |
| Route | TOSAM DCT FWW11 |
| Aircraft | BE58/L-SDFGRY/C |
Departure
| Time | 2026-05-09 17:25 |
|---|---|
| Airport | Bourail - Poé Airport (NWWB) |
Arrival
| Time | 2026-05-09 17:44 |
|---|---|
| Airport | La Tontouta International Airport (NWWW) |
| Time | Latitude | Longitude | Altitude | Speed | Heading |
|---|---|---|---|---|---|
| 2026-05-09 17:12 | -21.60982 | 165.40151 | -8 ft | 0 kts | 286° |
| 2026-05-09 17:21 | -21.60983 | 165.40144 | -5 ft | 4 kts | 234° |
| 2026-05-09 17:21 | -21.61047 | 165.40120 | -9 ft | 15 kts | 199° |
| 2026-05-09 17:21 | -21.61050 | 165.40030 | -10 ft | 13 kts | 288° |
| 2026-05-09 17:22 | -21.61026 | 165.39945 | -9 ft | 12 kts | 288° |
| 2026-05-09 17:22 | -21.60998 | 165.39851 | -7 ft | 12 kts | 287° |
| 2026-05-09 17:22 | -21.60977 | 165.39777 | -6 ft | 11 kts | 287° |
| 2026-05-09 17:22 | -21.60946 | 165.39675 | -6 ft | 13 kts | 286° |
| 2026-05-09 17:23 | -21.60918 | 165.39584 | -4 ft | 13 kts | 287° |
| 2026-05-09 17:23 | -21.60891 | 165.39494 | -3 ft | 12 kts | 287° |
| 2026-05-09 17:23 | -21.60858 | 165.39419 | -4 ft | 9 kts | 262° |
| 2026-05-09 17:23 | -21.60866 | 165.39410 | -5 ft | 3 kts | 180° |
| 2026-05-09 17:25 | -21.61284 | 165.40817 | 273 ft | 122 kts | 114° |
| 2026-05-09 17:25 | -21.61607 | 165.41653 | 704 ft | 121 kts | 123° |
| 2026-05-09 17:25 | -21.62003 | 165.42534 | 1016 ft | 138 kts | 117° |
| 2026-05-09 17:25 | -21.62426 | 165.43501 | 1381 ft | 146 kts | 118° |
| 2026-05-09 17:26 | -21.62791 | 165.44285 | 5326 ft | 171 kts | 118° |
| 2026-05-09 17:26 | -21.63367 | 165.45508 | 5369 ft | 189 kts | 118° |
| 2026-05-09 17:26 | -21.63970 | 165.46786 | 5407 ft | 199 kts | 118° |
| 2026-05-09 17:26 | -21.64605 | 165.48133 | 5462 ft | 203 kts | 118° |
| 2026-05-09 17:27 | -21.65236 | 165.49483 | 5648 ft | 202 kts | 117° |
| 2026-05-09 17:27 | -21.65868 | 165.50827 | 5819 ft | 201 kts | 118° |
| 2026-05-09 17:27 | -21.66498 | 165.52170 | 5992 ft | 201 kts | 118° |
| 2026-05-09 17:27 | -21.67120 | 165.53506 | 6171 ft | 199 kts | 118° |
| 2026-05-09 17:28 | -21.67741 | 165.54837 | 6341 ft | 199 kts | 118° |
| 2026-05-09 17:28 | -21.68324 | 165.56182 | 6504 ft | 199 kts | 114° |
| 2026-05-09 17:28 | -21.68827 | 165.57568 | 6664 ft | 198 kts | 114° |
| 2026-05-09 17:28 | -21.69350 | 165.58941 | 6829 ft | 199 kts | 114° |
| 2026-05-09 17:29 | -21.69892 | 165.60312 | 6984 ft | 199 kts | 115° |
| 2026-05-09 17:29 | -21.70443 | 165.61712 | 7006 ft | 207 kts | 114° |
| 2026-05-09 17:29 | -21.71010 | 165.63159 | 7015 ft | 213 kts | 114° |
| 2026-05-09 17:29 | -21.71591 | 165.64640 | 7016 ft | 217 kts | 115° |
| 2026-05-09 17:30 | -21.72182 | 165.66144 | 7016 ft | 219 kts | 115° |
| 2026-05-09 17:30 | -21.72782 | 165.67661 | 7016 ft | 220 kts | 118° |
| 2026-05-09 17:30 | -21.73804 | 165.68833 | 7014 ft | 216 kts | 153° |
| 2026-05-09 17:30 | -21.75151 | 165.69421 | 7012 ft | 203 kts | 161° |
| 2026-05-09 17:31 | -21.76400 | 165.70079 | 7005 ft | 198 kts | 153° |
| 2026-05-09 17:31 | -21.77559 | 165.70857 | 6999 ft | 194 kts | 149° |
| 2026-05-09 17:32 | -21.82030 | 165.73868 | 6990 ft | 188 kts | 151° |
| 2026-05-09 17:32 | -21.83139 | 165.74610 | 6993 ft | 188 kts | 152° |
| 2026-05-09 17:32 | -21.84251 | 165.75355 | 6993 ft | 188 kts | 150° |
| 2026-05-09 17:33 | -21.85358 | 165.76096 | 6991 ft | 188 kts | 150° |
| 2026-05-09 17:33 | -21.86470 | 165.76842 | 6991 ft | 188 kts | 150° |
| 2026-05-09 17:33 | -21.87576 | 165.77583 | 6990 ft | 188 kts | 150° |
| 2026-05-09 17:33 | -21.88684 | 165.78325 | 6991 ft | 188 kts | 150° |
| 2026-05-09 17:34 | -21.89792 | 165.79068 | 6987 ft | 187 kts | 150° |
| 2026-05-09 17:35 | -21.96179 | 165.83349 | 6487 ft | 169 kts | 151° |
| 2026-05-09 17:35 | -21.97066 | 165.84166 | 6208 ft | 171 kts | 121° |
| 2026-05-09 17:36 | -21.97267 | 165.85410 | 5931 ft | 172 kts | 85° |
| 2026-05-09 17:36 | -21.97119 | 165.86687 | 5642 ft | 172 kts | 83° |
| 2026-05-09 17:36 | -21.96985 | 165.87945 | 5361 ft | 172 kts | 85° |
| 2026-05-09 17:36 | -21.96908 | 165.89229 | 5074 ft | 171 kts | 88° |
| 2026-05-09 17:37 | -21.96853 | 165.90513 | 4788 ft | 171 kts | 89° |
| 2026-05-09 17:37 | -21.96801 | 165.91797 | 4492 ft | 171 kts | 89° |
| 2026-05-09 17:37 | -21.96747 | 165.93076 | 4194 ft | 170 kts | 88° |
| 2026-05-09 17:37 | -21.96694 | 165.94343 | 3896 ft | 169 kts | 88° |
| 2026-05-09 17:38 | -21.96640 | 165.95608 | 3610 ft | 170 kts | 89° |
| 2026-05-09 17:38 | -21.96584 | 165.96885 | 3278 ft | 172 kts | 89° |
| 2026-05-09 17:38 | -21.96530 | 165.98184 | 2931 ft | 175 kts | 89° |
| 2026-05-09 17:39 | -21.96420 | 166.00767 | 2679 ft | 182 kts | 89° |
| 2026-05-09 17:39 | -21.96360 | 166.02193 | 2610 ft | 196 kts | 89° |
| 2026-05-09 17:39 | -21.96297 | 166.03677 | 2601 ft | 200 kts | 89° |
| 2026-05-09 17:39 | -21.96232 | 166.05181 | 2532 ft | 201 kts | 88° |
| 2026-05-09 17:40 | -21.96168 | 166.06642 | 2360 ft | 191 kts | 89° |
| 2026-05-09 17:40 | -21.96106 | 166.08050 | 2180 ft | 186 kts | 89° |
| 2026-05-09 17:40 | -21.96048 | 166.09425 | 2011 ft | 180 kts | 89° |
| 2026-05-09 17:40 | -21.95994 | 166.10733 | 1814 ft | 173 kts | 91° |
| 2026-05-09 17:41 | -21.96214 | 166.11934 | 1773 ft | 157 kts | 115° |
| 2026-05-09 17:41 | -21.96738 | 166.12921 | 1664 ft | 151 kts | 122° |
| 2026-05-09 17:41 | -21.97237 | 166.13881 | 1466 ft | 144 kts | 121° |
| 2026-05-09 17:41 | -21.97739 | 166.14813 | 1229 ft | 141 kts | 123° |
| 2026-05-09 17:42 | -21.98257 | 166.15705 | 964 ft | 142 kts | 124° |
| 2026-05-09 17:42 | -21.98761 | 166.16592 | 747 ft | 130 kts | 123° |
| 2026-05-09 17:42 | -21.99223 | 166.17380 | 568 ft | 123 kts | 125° |
| 2026-05-09 17:42 | -21.99669 | 166.18163 | 389 ft | 126 kts | 123° |
| 2026-05-09 17:43 | -22.00128 | 166.18976 | 237 ft | 125 kts | 123° |
| 2026-05-09 17:43 | -22.00572 | 166.19745 | 70 ft | 116 kts | 125° |
| 2026-05-09 17:43 | -22.00967 | 166.20444 | 20 ft | 102 kts | 126° |
| 2026-05-09 17:43 | -22.01311 | 166.21057 | 20 ft | 90 kts | 127° |
| 2026-05-09 17:44 | -22.01594 | 166.21551 | 21 ft | 44 kts | 120° |
| 2026-05-09 17:44 | -22.01609 | 166.21628 | 21 ft | 5 kts | 329° |
| 2026-05-09 17:44 | -22.01604 | 166.21583 | 21 ft | 11 kts | 286° |
| 2026-05-09 17:44 | -22.01550 | 166.21474 | 19 ft | 18 kts | 300° |
| 2026-05-09 17:45 | -22.01477 | 166.21346 | 18 ft | 22 kts | 301° |
| 2026-05-09 17:45 | -22.01399 | 166.21223 | 17 ft | 18 kts | 321° |
| 2026-05-09 17:45 | -22.01296 | 166.21251 | 17 ft | 15 kts | 24° |
| 2026-05-09 17:45 | -22.01211 | 166.21304 | 17 ft | 13 kts | 26° |
| 2026-05-09 17:46 | -22.01157 | 166.21299 | 16 ft | 8 kts | 120° |
| 2026-05-09 17:46 | -22.01169 | 166.21306 | 17 ft | 0 kts | 167° |